Time;durP1;ratioP1;P1;durP2;ratioP2;P2;SDS_P1;SDS_P2;PMS_P1;PMS_P2;Temp;Humidity;BMP_temperature;BMP_pressure;BME280_temperature;BME280_humidity;BME280_pressure;Samples;Min_cycle;Max_cycle;Signal;HPM_P1;HPM_P2
2022/06/05 00:01:36;;;;;;;;;13.50;11.25;;;;;20.98;67.46;100687.94;5056345;28;45513;-80
2022/06/05 00:04:17;;;;;;;;;14.50;13.50;;;;;20.98;67.97;100690.59;5056155;28;45722;-81
2022/06/05 00:06:52;;;;;;;;;16.25;13.75;;;;;20.98;67.42;100699.44;5056189;28;45714;-79
2022/06/05 00:09:54;;;;;;;;;14.00;13.25;;;;;20.97;67.30;100700.44;5056099;28;45612;-80
2022/06/05 00:12:28;;;;;;;;;12.25;11.00;;;;;20.94;67.24;100684.81;5037450;28;45910;-80
2022/06/05 00:14:54;;;;;;;;;14.25;11.50;;;;;20.90;67.34;100665.66;5055935;28;45654;-78
2022/06/05 00:17:21;;;;;;;;;12.00;10.75;;;;;20.97;67.08;100691.59;5055842;28;45661;-78
2022/06/05 00:19:49;;;;;;;;;11.75;11.50;;;;;20.97;66.99;100699.59;5055925;28;45698;-80
2022/06/05 00:22:16;;;;;;;;;15.25;14.00;;;;;20.97;66.99;100694.25;5055976;28;46726;-78
2022/06/05 00:24:41;;;;;;;;;13.25;12.50;;;;;20.97;67.24;100697.75;5055004;28;45920;-80
2022/06/05 00:27:42;;;;;;;;;11.50;10.75;;;;;20.98;66.88;100699.44;5055772;28;45578;-78
2022/06/05 00:30:34;;;;;;;;;12.75;12.00;;;;;20.97;66.87;100703.09;4993626;28;45551;-80
2022/06/05 00:33:08;;;;;;;;;15.25;14.25;;;;;20.86;67.45;100682.16;4993143;28;48368;-78
2022/06/05 00:36:03;;;;;;;;;16.50;15.75;;;;;20.91;67.36;100687.81;4993533;28;45855;-79
2022/06/05 00:38:40;;;;;;;;;15.50;15.25;;;;;20.80;67.71;100667.72;5009429;28;45760;-78
2022/06/05 00:41:33;;;;;;;;;15.25;14.75;;;;;20.84;68.11;100679.66;5009201;28;45559;-79
2022/06/05 00:44:02;;;;;;;;;16.25;15.25;;;;;20.77;68.41;100665.41;5029514;28;48888;-80
2022/06/05 00:46:28;;;;;;;;;16.75;15.75;;;;;20.69;68.42;100649.44;5013053;28;46310;-77
2022/06/05 00:48:55;;;;;;;;;17.25;15.50;;;;;20.67;68.88;100653.31;5013376;28;45789;-80
2022/06/05 00:54:42;;;;;;;;;13.75;11.50;;;;;20.61;69.31;100660.16;5012955;28;46056;-79
2022/06/05 00:57:10;;;;;;;;;17.00;16.50;;;;;20.55;69.59;100654.69;5012887;28;45706;-79
2022/06/05 00:59:38;;;;;;;;;16.50;15.50;;;;;20.54;69.39;100661.81;5012948;28;45736;-79
2022/06/05 01:02:05;;;;;;;;;18.00;16.00;;;;;20.49;69.40;100649.03;5012887;28;45899;-79
2022/06/05 01:04:33;;;;;;;;;17.75;17.75;;;;;20.41;69.62;100648.22;5013113;28;46702;-80
2022/06/05 01:10:25;;;;;;;;;16.50;16.00;;;;;20.41;69.57;100648.22;5034691;28;45550;-79
2022/06/05 01:13:08;;;;;;;;;16.00;15.00;;;;;20.41;69.71;100650.88;5035100;28;45786;-79
2022/06/05 01:15:51;;;;;;;;;15.50;14.50;;;;;20.40;70.00;100636.78;5034842;28;45508;-78
2022/06/05 01:18:55;;;;;;;;;17.00;16.00;;;;;20.40;69.59;100626.13;5034593;28;45902;-80
2022/06/05 01:21:23;;;;;;;;;17.00;16.00;;;;;20.45;69.58;100625.59;4973207;28;45641;-79
2022/06/05 01:24:38;;;;;;;;;16.75;16.25;;;;;20.47;69.79;100613.75;4973371;28;45743;-79
2022/06/05 01:27:12;;;;;;;;;19.75;18.25;;;;;20.46;70.03;100616.59;4956517;28;46629;-79
2022/06/05 01:29:48;;;;;;;;;15.50;15.50;;;;;20.47;70.17;100599.63;4973239;28;46403;-79
2022/06/05 01:32:25;;;;;;;;;18.75;17.50;;;;;20.44;69.86;100592.00;4972973;28;45536;-80
2022/06/05 01:34:57;;;;;;;;;19.00;18.25;;;;;20.41;69.65;100590.50;4973225;28;45663;-78
2022/06/05 01:40:49;;;;;;;;;18.75;17.00;;;;;20.42;69.46;100586.00;4972010;28;46053;-76
2022/06/05 01:43:30;;;;;;;;;19.25;18.75;;;;;20.39;69.70;100565.06;4972595;28;45785;-78
2022/06/05 01:46:07;;;;;;;;;16.50;15.50;;;;;20.41;69.52;100563.88;4972980;28;45717;-79
2022/06/05 01:48:38;;;;;;;;;19.25;18.25;;;;;20.45;69.63;100567.88;4972629;28;46558;-77
2022/06/05 01:51:09;;;;;;;;;19.75;17.75;;;;;20.40;69.35;100554.25;4972698;28;45906;-78
2022/06/05 01:56:59;;;;;;;;;17.25;16.50;;;;;20.44;70.23;100560.06;5005342;28;45606;-78
2022/06/05 01:59:41;;;;;;;;;19.25;17.00;;;;;20.46;69.81;100555.38;5034215;28;45953;-80
2022/06/05 02:02:11;;;;;;;;;19.50;18.00;;;;;20.43;70.39;100558.41;5034230;28;46489;-79
2022/06/05 02:04:45;;;;;;;;;17.25;16.75;;;;;20.38;70.16;100555.44;5034309;28;45659;-79
2022/06/05 02:07:19;;;;;;;;;22.00;21.00;;;;;20.32;70.50;100548.97;5034290;28;45611;-80
2022/06/05 02:09:53;;;;;;;;;20.25;20.25;;;;;20.26;70.52;100546.13;5034050;28;45646;-80
2022/06/05 02:12:21;;;;;;;;;19.00;19.00;;;;;20.20;70.57;100530.84;5034063;28;46096;-78
2022/06/05 02:14:46;;;;;;;;;20.75;19.00;;;;;20.10;70.56;100517.75;5015939;28;45598;-80
2022/06/05 02:17:12;;;;;;;;;19.00;19.00;;;;;20.11;70.42;100517.59;5034064;28;45879;-79
2022/06/05 02:19:39;;;;;;;;;21.75;18.00;;;;;20.13;70.50;100525.41;5034000;28;45663;-79
2022/06/05 02:22:12;;;;;;;;;17.50;15.75;;;;;20.09;70.81;100521.41;5033967;28;46395;-81
2022/06/05 02:24:37;;;;;;;;;17.50;15.75;;;;;20.06;70.80;100517.28;5033804;28;45608;-80
2022/06/05 02:27:06;;;;;;;;;16.00;16.00;;;;;20.02;70.15;100512.50;5034107;28;45912;-81
2022/06/05 02:29:32;;;;;;;;;14.75;13.75;;;;;20.04;70.35;100519.28;5033669;28;46517;-80
2022/06/05 02:32:20;;;;;;;;;15.00;14.50;;;;;19.98;70.18;100511.16;5033571;28;46184;-81
2022/06/05 02:35:19;;;;;;;;;14.00;13.50;;;;;19.95;70.44;100515.00;5033775;28;45688;-80
2022/06/05 02:38:03;;;;;;;;;17.00;14.50;;;;;19.91;70.18;100507.53;5033680;28;45761;-80
2022/06/05 02:40:41;;;;;;;;;12.50;12.50;;;;;19.85;70.40;100502.91;5042391;28;45644;-80
2022/06/05 02:43:12;;;;;;;;;2.25;1.25;;;;;19.81;70.26;100488.31;5053778;28;45862;-81
2022/06/05 02:45:46;;;;;;;;;13.00;11.50;;;;;19.81;70.89;100494.44;5053796;28;45617;-81
2022/06/05 02:48:25;;;;;;;;;16.25;15.00;;;;;19.79;70.78;100484.97;5035030;28;45705;-81
2022/06/05 02:51:10;;;;;;;;;14.25;14.00;;;;;19.76;70.58;100485.34;5053423;28;46341;-81
2022/06/05 02:53:55;;;;;;;;;15.00;14.00;;;;;19.77;70.70;100497.59;5053602;28;46002;-81
2022/06/05 02:56:22;;;;;;;;;15.75;15.00;;;;;19.74;70.79;100488.16;5053397;28;45498;-80
2022/06/05 02:58:49;;;;;;;;;16.00;16.00;;;;;19.69;70.83;100483.34;5035318;28;45650;-79
2022/06/05 03:04:00;;;;;;;;;16.25;15.00;;;;;19.72;70.52;100492.81;5053271;28;46128;-80
2022/06/05 03:06:29;;;;;;;;;16.25;14.75;;;;;19.72;70.55;100498.13;5053522;28;45673;-80
2022/06/05 03:08:54;;;;;;;;;15.00;14.25;;;;;19.71;71.13;100499.13;5053555;28;45527;-81
2022/06/05 03:11:20;;;;;;;;;17.50;17.00;;;;;19.72;70.54;100515.91;5053272;28;46632;-81
2022/06/05 03:13:45;;;;;;;;;18.00;13.75;;;;;19.66;71.05;100512.91;5034970;28;47961;-81
2022/06/05 03:16:10;;;;;;;;;16.00;16.00;;;;;19.55;70.67;100507.13;5053337;28;45595;-80
2022/06/05 03:18:37;;;;;;;;;17.25;16.50;;;;;19.55;70.96;100529.22;5053372;28;45874;-80
2022/06/05 03:21:03;;;;;;;;;14.25;13.00;;;;;19.45;71.13;100519.78;5053313;28;46618;-80
2022/06/05 03:23:31;;;;;;;;;16.00;15.50;;;;;19.43;71.37;100522.59;5053238;28;46080;-79
2022/06/05 03:25:57;;;;;;;;;17.25;16.00;;;;;19.34;71.36;100510.28;5053299;28;45593;-79
2022/06/05 03:28:23;;;;;;;;;17.25;16.00;;;;;19.33;71.18;100529.88;5053386;28;45662;-81
2022/06/05 03:30:48;;;;;;;;;18.25;14.75;;;;;19.21;71.51;100502.84;5053150;28;45645;-81
2022/06/05 03:33:13;;;;;;;;;18.25;14.75;;;;;19.19;71.68;100507.50;5052993;28;45555;-80
2022/06/05 03:35:44;;;;;;;;;19.25;18.75;;;;;19.14;71.64;100504.50;5053408;28;45614;-81
2022/06/05 03:38:12;;;;;;;;;15.75;15.50;;;;;19.17;71.83;100533.38;5053359;28;45582;-80
2022/06/05 03:40:42;;;;;;;;;15.75;15.25;;;;;19.04;71.99;100506.50;5053233;28;46669;-79
2022/06/05 03:43:08;;;;;;;;;16.25;15.50;;;;;19.12;71.99;100514.44;5053768;28;46373;-80
2022/06/05 03:45:33;;;;;;;;;18.50;18.00;;;;;19.02;72.08;100516.44;5053723;28;45608;-79
2022/06/05 03:47:58;;;;;;;;;20.25;18.00;;;;;19.09;72.16;100528.06;5053450;28;45825;-79
2022/06/05 03:50:24;;;;;;;;;19.75;19.25;;;;;19.10;71.56;100539.53;5052948;28;46539;-81
2022/06/05 03:52:50;;;;;;;;;13.75;13.50;;;;;19.11;71.58;100543.84;5052853;28;45684;-80
2022/06/05 03:55:18;;;;;;;;;18.50;17.25;;;;;19.08;71.56;100537.03;5053038;28;45825;-79
2022/06/05 03:57:44;;;;;;;;;16.25;15.50;;;;;19.12;72.22;100543.66;5052734;28;45579;-81
2022/06/05 04:00:10;;;;;;;;;17.00;16.25;;;;;19.10;71.59;100539.53;5035613;28;47350;-80
2022/06/05 04:02:36;;;;;;;;;16.75;15.50;;;;;19.08;71.58;100531.72;5056108;28;45947;-81
2022/06/05 04:05:04;;;;;;;;;17.00;16.25;;;;;19.20;71.58;100550.81;5056133;28;45632;-79
2022/06/05 04:07:29;;;;;;;;;19.25;18.00;;;;;19.16;71.86;100541.53;5056263;28;45524;-80
2022/06/05 04:13:17;;;;;;;;;14.75;14.25;;;;;19.26;71.57;100553.66;5055949;28;46282;-79
2022/06/05 04:15:42;;;;;;;;;15.00;13.50;;;;;19.29;71.58;100560.44;5056205;28;45555;-80
2022/06/05 04:18:08;;;;;;;;;14.00;12.50;;;;;19.28;71.92;100561.44;5056290;28;45628;-79
2022/06/05 04:20:36;;;;;;;;;12.00;11.00;;;;;19.20;71.49;100556.97;5056023;28;46411;-79
2022/06/05 04:23:02;;;;;;;;;16.00;15.00;;;;;19.19;71.56;100557.13;5055746;28;46183;-79
2022/06/05 04:25:28;;;;;;;;;15.75;13.00;;;;;19.22;71.83;100570.06;5037418;28;45882;-80
2022/06/05 04:27:54;;;;;;;;;12.75;11.75;;;;;19.24;71.50;100568.91;5055942;28;45788;-80
2022/06/05 04:30:20;;;;;;;;;12.75;12.50;;;;;19.26;71.25;100571.41;5055599;28;45696;-80
2022/06/05 04:32:45;;;;;;;;;14.00;13.50;;;;;19.26;71.50;100574.06;5055713;28;45532;-78
2022/06/05 04:35:11;;;;;;;;;15.75;14.00;;;;;19.27;71.74;100568.56;5055786;28;45531;-80
2022/06/05 04:37:36;;;;;;;;;13.50;13.50;;;;;19.35;71.92;100588.16;5055526;28;45567;-80
2022/06/05 04:44:05;;;;;;;;;11.25;11.25;;;;;19.43;71.13;100599.66;5052209;28;45864;-80
2022/06/05 04:46:43;;;;;;;;;16.50;14.00;;;;;19.42;71.63;100597.97;5055428;28;45730;-79
2022/06/05 04:49:10;;;;;;;;;14.25;14.00;;;;;19.43;71.00;100596.16;5054057;28;45672;-80
2022/06/05 04:51:36;;;;;;;;;14.00;12.75;;;;;19.50;71.12;100602.47;5055649;28;45755;-79
2022/06/05 04:57:23;;;;;;;;;11.25;10.25;;;;;19.61;70.95;100623.41;5054933;28;45723;-77
2022/06/05 04:59:49;;;;;;;;;13.00;11.75;;;;;19.60;70.67;100624.41;5055506;28;45838;-80
2022/06/05 05:02:17;;;;;;;;;13.50;12.25;;;;;19.55;70.38;100608.97;5055300;28;45639;-79
2022/06/05 05:04:42;;;;;;;;;9.00;9.00;;;;;19.69;70.65;100621.59;5055417;28;46125;-79
2022/06/05 05:07:08;;;;;;;;;12.00;12.00;;;;;19.75;70.85;100621.91;5036776;28;45751;-79
2022/06/05 05:12:55;;;;;;;;;11.00;11.00;;;;;19.81;70.43;100616.75;5054982;28;45661;-80
2022/06/05 05:15:20;;;;;;;;;10.75;10.00;;;;;19.80;70.19;100609.78;5055048;28;45761;-79
2022/06/05 05:17:46;;;;;;;;;11.00;10.75;;;;;19.85;70.20;100606.63;5054882;28;45675;-78
2022/06/05 05:20:12;;;;;;;;;11.25;11.25;;;;;19.89;70.28;100607.94;5055190;28;45797;-78
2022/06/05 05:22:38;;;;;;;;;12.75;11.75;;;;;19.88;70.22;100600.94;5055031;28;46585;-79
2022/06/05 05:28:25;;;;;;;;;10.25;10.25;;;;;19.96;69.85;100611.59;5054665;28;45634;-78
2022/06/05 05:30:51;;;;;;;;;12.75;11.25;;;;;19.99;69.91;100619.22;5054846;28;45789;-78
2022/06/05 05:33:16;;;;;;;;;11.50;10.75;;;;;20.02;69.94;100614.41;5036450;28;47606;-79
2022/06/05 05:35:42;;;;;;;;;10.50;10.25;;;;;20.05;69.56;100619.38;5054681;28;45666;-78
2022/06/05 05:38:07;;;;;;;;;9.50;9.50;;;;;20.02;69.34;100616.22;5054657;28;45649;-80
2022/06/05 05:43:55;;;;;;;;;13.25;11.50;;;;;20.21;68.94;100623.81;5052036;28;46016;-79
2022/06/05 05:46:21;;;;;;;;;12.00;10.75;;;;;20.22;69.42;100627.31;5054444;28;46093;-79
2022/06/05 05:48:46;;;;;;;;;12.00;11.00;;;;;20.26;69.31;100626.78;5054774;28;45551;-77
2022/06/05 05:51:13;;;;;;;;;11.50;10.75;;;;;20.25;69.26;100613.66;5055117;28;45781;-80
2022/06/05 05:53:39;;;;;;;;;12.75;12.00;;;;;20.31;69.03;100618.28;5054389;28;45620;-80
2022/06/05 05:56:09;;;;;;;;;13.25;13.25;;;;;20.42;68.82;100632.09;5054493;28;45615;-78
2022/06/05 05:58:36;;;;;;;;;14.50;13.25;;;;;20.46;69.00;100622.75;5054644;28;45683;-78
2022/06/05 06:01:05;;;;;;;;;10.25;8.50;;;;;20.46;68.66;100619.25;5052927;28;45602;-79
2022/06/05 06:03:30;;;;;;;;;11.00;11.00;;;;;20.47;68.54;100612.94;5054370;28;45556;-78
2022/06/05 06:05:58;;;;;;;;;21.75;20.00;;;;;20.52;68.62;100610.59;5054196;28;45543;-79
2022/06/05 06:08:23;;;;;;;;;11.50;11.50;;;;;20.50;68.55;100602.78;5035809;28;45696;-80
2022/06/05 06:14:10;;;;;;;;;9.00;9.00;;;;;20.69;68.32;100622.81;5054058;28;45929;-79
2022/06/05 06:16:39;;;;;;;;;10.00;9.50;;;;;20.71;68.25;100612.84;5053963;28;46435;-78
2022/06/05 06:19:04;;;;;;;;;11.00;10.75;;;;;20.76;68.19;100614.97;5054049;28;45583;-78
2022/06/05 06:21:31;;;;;;;;;11.50;10.75;;;;;20.73;68.20;100604.69;5054136;28;45815;-79
2022/06/05 06:23:56;;;;;;;;;11.25;11.00;;;;;20.80;68.09;100611.78;5053307;28;46947;-76
2022/06/05 06:26:22;;;;;;;;;6.75;6.75;;;;;20.80;67.80;100601.13;5053928;28;45717;-76
2022/06/05 06:28:47;;;;;;;;;7.75;7.75;;;;;20.86;67.91;100603.09;5054067;28;45524;-78
2022/06/05 06:31:16;;;;;;;;;7.25;7.00;;;;;20.88;67.79;100601.09;5054255;28;45618;-79
2022/06/05 06:33:42;;;;;;;;;8.75;8.75;;;;;20.92;67.88;100599.72;5054027;28;46742;-78
2022/06/05 06:36:10;;;;;;;;;8.25;8.00;;;;;20.94;67.91;100611.03;5053639;28;46172;-78
2022/06/05 06:38:35;;;;;;;;;7.25;7.00;;;;;20.89;67.67;100592.06;5053643;28;45673;-78
2022/06/05 06:44:23;;;;;;;;;7.25;6.50;;;;;21.06;67.84;100594.63;5050658;28;46549;-80
2022/06/05 06:46:49;;;;;;;;;5.00;5.00;;;;;21.08;67.85;100597.97;5053663;28;45664;-78
2022/06/05 06:49:15;;;;;;;;;6.25;5.75;;;;;21.11;67.79;100594.94;5035235;28;45654;-80
2022/06/05 06:51:40;;;;;;;;;4.75;4.75;;;;;21.13;67.95;100592.94;5053926;28;45728;-78
2022/06/05 06:54:06;;;;;;;;;6.50;5.25;;;;;21.18;67.93;100588.75;5053653;28;45734;-79
2022/06/05 06:56:34;;;;;;;;;5.25;5.00;;;;;21.21;67.73;100587.59;5053459;28;45709;-80
2022/06/05 06:59:01;;;;;;;;;3.50;3.00;;;;;21.21;67.95;100580.41;5053450;28;45631;-79
2022/06/05 07:01:27;;;;;;;;;5.00;5.00;;;;;21.22;67.65;100586.53;5053880;28;45473;-80
2022/06/05 07:03:52;;;;;;;;;4.75;4.75;;;;;21.22;68.10;100575.88;5053547;28;45595;-80
2022/06/05 07:06:20;;;;;;;;;4.00;4.00;;;;;21.23;67.85;100578.38;5053170;28;46477;-78
2022/06/05 07:08:46;;;;;;;;;5.00;5.00;;;;;21.26;68.01;100585.22;5053656;28;45531;-78
2022/06/05 07:14:33;;;;;;;;;6.00;4.75;;;;;21.17;67.62;100557.78;5053099;28;45624;-79
2022/06/05 07:16:59;;;;;;;;;4.75;4.75;;;;;21.23;67.53;100564.22;5053245;28;46404;-80
2022/06/05 07:19:24;;;;;;;;;5.50;5.00;;;;;21.26;67.44;100564.72;5053551;28;45725;-80
2022/06/05 07:21:49;;;;;;;;;4.75;4.75;;;;;21.29;67.34;100561.69;5053500;28;45767;-80
2022/06/05 07:24:16;;;;;;;;;6.25;5.00;;;;;21.28;67.45;100559.19;5053313;28;46627;-79
2022/06/05 07:26:43;;;;;;;;;6.00;6.00;;;;;21.37;67.37;100565.28;5053139;28;46170;-80
2022/06/05 07:29:08;;;;;;;;;5.00;5.00;;;;;21.39;67.34;100569.41;5053994;28;45732;-81
2022/06/05 07:31:34;;;;;;;;;6.25;6.25;;;;;21.39;67.04;100568.59;5053540;28;45543;-79
2022/06/05 07:34:00;;;;;;;;;6.00;6.00;;;;;21.49;67.05;100577.16;5054320;28;46804;-79
2022/06/05 07:36:27;;;;;;;;;7.25;7.00;;;;;21.43;66.99;100572.56;5056617;28;45668;-81
2022/06/05 07:38:53;;;;;;;;;9.00;6.25;;;;;21.46;66.28;100570.38;5056448;28;45540;-77
2022/06/05 07:44:40;;;;;;;;;7.00;7.00;;;;;21.48;66.35;100571.03;5054705;28;45728;-79
2022/06/05 07:47:09;;;;;;;;;8.00;8.00;;;;;21.48;66.76;100565.69;5056530;28;46147;-80
2022/06/05 07:49:39;;;;;;;;;9.75;8.75;;;;;21.50;66.74;100574.31;5056809;28;45893;-79
2022/06/05 07:54:49;;;;;;;;;8.25;7.00;;;;;21.61;66.62;100576.56;5048638;28;46122;-79
2022/06/05 07:57:19;;;;;;;;;5.00;5.00;;;;;21.66;66.62;100578.69;5056196;28;45554;-80
2022/06/05 07:59:47;;;;;;;;;6.50;6.00;;;;;21.71;66.59;100587.78;5056387;28;45615;-79
2022/06/05 08:02:15;;;;;;;;;6.25;6.25;;;;;21.71;66.21;100574.44;5056593;28;45685;-79
2022/06/05 08:04:43;;;;;;;;;8.00;7.75;;;;;21.81;66.41;100576.84;5056229;28;45664;-79
2022/06/05 08:07:11;;;;;;;;;9.00;7.25;;;;;21.83;65.73;100571.34;5056339;28;45699;-80
2022/06/05 08:09:38;;;;;;;;;6.00;5.75;;;;;21.85;66.27;100567.50;5056077;28;45638;-79
2022/06/05 08:12:05;;;;;;;;;7.00;6.25;;;;;21.94;65.79;100581.56;5054772;28;45991;-78
2022/06/05 08:14:34;;;;;;;;;5.75;5.00;;;;;21.96;65.91;100591.09;5055840;28;46481;-80
2022/06/05 08:17:01;;;;;;;;;6.00;6.00;;;;;21.98;65.42;100588.22;5055791;28;45772;-80
2022/06/05 08:19:26;;;;;;;;;6.50;6.00;;;;;21.99;65.37;100587.22;5056031;28;45852;-79
2022/06/05 08:21:53;;;;;;;;;5.75;5.00;;;;;22.05;65.81;100592.66;5056199;28;45715;-81
2022/06/05 08:24:19;;;;;;;;;6.50;6.00;;;;;22.03;65.60;100580.47;5055762;28;46561;-79
2022/06/05 08:30:07;;;;;;;;;6.00;5.75;;;;;22.12;65.43;100596.25;5055677;28;45610;-80
2022/06/05 08:32:33;;;;;;;;;5.25;5.00;;;;;22.14;65.06;100599.53;5055980;28;45595;-80
2022/06/05 08:34:59;;;;;;;;;5.25;5.00;;;;;22.17;64.63;100607.19;5055810;28;45573;-79
2022/06/05 08:43:33;;;;;;;;;4.75;4.00;;;;;22.12;64.43;100606.94;5055675;28;45472;-79
2022/06/05 08:46:07;;;;;;;;;3.00;3.00;;;;;22.06;64.03;100617.50;5054983;28;46749;-79
2022/06/05 08:48:47;;;;;;;;;3.00;3.00;;;;;21.97;63.92;100614.06;5055656;28;45733;-80
2022/06/05 08:51:26;;;;;;;;;3.75;3.75;;;;;21.96;63.94;100643.63;5055753;28;45445;-80
2022/06/05 08:54:01;;;;;;;;;4.25;4.00;;;;;21.89;63.53;100623.97;5055635;28;45814;-81
2022/06/05 08:56:40;;;;;;;;;7.00;6.00;;;;;21.86;63.59;100624.34;5055316;28;45658;-79
2022/06/05 08:59:22;;;;;;;;;4.00;4.00;;;;;21.84;63.38;100631.69;5055261;28;45754;-80
2022/06/05 09:01:54;;;;;;;;;7.25;6.00;;;;;21.81;64.03;100618.72;5047597;28;45553;-79
2022/06/05 09:04:45;;;;;;;;;6.75;6.00;;;;;21.82;63.85;100626.53;5055521;28;45637;-80
2022/06/05 09:07:18;;;;;;;;;6.25;6.25;;;;;21.79;64.04;100624.25;5055224;28;46640;-80
2022/06/05 09:12:54;;;;;;;;;6.00;6.00;;;;;21.70;64.20;100636.81;5055244;28;45638;-79
2022/06/05 09:15:34;;;;;;;;;6.50;6.50;;;;;21.65;64.94;100638.34;5055339;28;45888;-80
2022/06/05 09:18:01;;;;;;;;;5.25;5.00;;;;;21.60;64.61;100630.06;5055218;28;45715;-81
2022/06/05 09:20:46;;;;;;;;;6.00;6.00;;;;;21.55;64.92;100649.28;5055326;28;46265;-81
2022/06/05 09:23:27;;;;;;;;;7.25;7.25;;;;;21.54;65.09;100650.28;5055428;28;45682;-81
2022/06/05 09:29:32;;;;;;;;;7.50;6.75;;;;;21.56;65.69;100660.78;5054636;28;45564;-82
2022/06/05 09:32:34;;;;;;;;;6.25;6.25;;;;;21.51;65.51;100679.13;5054911;28;45618;-81
2022/06/05 09:35:12;;;;;;;;;7.75;7.00;;;;;21.52;65.34;100681.63;5055170;28;45681;-81
2022/06/05 09:38:00;;;;;;;;;8.50;7.00;;;;;21.52;65.67;100691.47;5055106;28;45554;-81
2022/06/05 09:40:34;;;;;;;;;7.00;7.00;;;;;21.53;65.62;100685.13;5054738;28;45606;-80
2022/06/05 09:43:21;;;;;;;;;10.00;8.00;;;;;21.52;65.27;100692.31;5054653;28;46498;-78
2022/06/05 09:46:34;;;;;;;;;8.00;7.25;;;;;21.43;65.58;100665.88;5036087;28;45605;-78
2022/06/05 09:49:13;;;;;;;;;9.50;8.50;;;;;21.47;66.23;100676.00;4926337;28;45765;-80
2022/06/05 09:51:41;;;;;;;;;9.00;7.75;;;;;21.43;66.59;100681.88;5033648;28;46428;-79
2022/06/05 09:54:16;;;;;;;;;7.25;6.25;;;;;21.44;66.36;100692.34;5054728;28;45992;-78
2022/06/05 10:00:26;;;;;;;;;9.50;8.25;;;;;21.29;65.73;100684.28;5054353;28;45665;-79
2022/06/05 10:03:00;;;;;;;;;10.00;8.25;;;;;21.25;65.61;100704.31;5054347;28;45814;-79
2022/06/05 10:05:32;;;;;;;;;8.00;8.00;;;;;21.18;66.13;100695.34;5054412;28;45942;-80
2022/06/05 10:08:17;;;;;;;;;11.50;9.50;;;;;21.15;65.88;100705.53;5054279;28;45844;-80
2022/06/05 10:14:30;;;;;;;;;8.25;7.75;;;;;21.11;66.02;100721.00;5054147;28;45966;-78
2022/06/05 10:17:20;;;;;;;;;8.75;8.50;;;;;21.11;65.98;100725.50;5047100;28;46136;-80
2022/06/05 10:19:59;;;;;;;;;9.25;9.00;;;;;21.07;65.94;100717.03;5053998;28;45685;-78
2022/06/05 10:22:39;;;;;;;;;11.75;10.25;;;;;21.01;66.16;100717.72;5054063;28;45860;-81
2022/06/05 10:25:11;;;;;;;;;10.50;10.50;;;;;21.01;66.16;100739.03;5036124;28;46457;-81
2022/06/05 10:31:05;;;;;;;;;9.75;8.75;;;;;20.98;66.12;100735.91;5054232;28;45763;-79
2022/06/05 10:33:40;;;;;;;;;13.00;11.50;;;;;20.95;66.43;100716.56;5054299;28;45736;-80
2022/06/05 10:36:08;;;;;;;;;13.50;12.25;;;;;20.92;66.62;100722.25;5054358;28;46660;-77
2022/06/05 10:38:47;;;;;;;;;14.50;12.50;;;;;20.92;66.84;100724.94;5054007;28;46481;-80
2022/06/05 10:41:33;;;;;;;;;13.75;13.75;;;;;20.95;66.50;100759.19;5035884;28;45686;-80
2022/06/05 10:44:21;;;;;;;;;15.75;15.00;;;;;20.89;66.14;100741.25;5054063;28;45704;-79
2022/06/05 10:47:10;;;;;;;;;12.50;12.00;;;;;20.83;66.08;100728.63;5053650;28;45891;-79
2022/06/05 10:50:07;;;;;;;;;13.50;13.50;;;;;20.79;66.13;100735.28;5053601;28;46332;-80
2022/06/05 10:52:45;;;;;;;;;15.00;13.75;;;;;20.75;66.30;100730.47;4991570;28;45712;-80
2022/06/05 10:55:34;;;;;;;;;13.25;12.00;;;;;20.68;66.39;100727.66;4991698;28;45658;-79
2022/06/05 10:58:33;;;;;;;;;15.25;13.00;;;;;20.60;66.58;100730.38;4991488;28;45676;-80
2022/06/05 11:01:25;;;;;;;;;14.50;14.00;;;;;20.53;66.45;100734.69;4991493;28;46007;-79
2022/06/05 11:04:11;;;;;;;;;12.75;12.75;;;;;20.45;66.64;100740.91;4975024;28;45817;-80
2022/06/05 11:07:00;;;;;;;;;15.75;15.00;;;;;20.41;67.01;100723.56;4991631;28;45805;-80
2022/06/05 11:09:51;;;;;;;;;14.75;14.00;;;;;20.39;67.49;100736.25;4992729;28;45780;-80
2022/06/05 11:15:53;;;;;;;;;17.00;15.25;;;;;20.45;67.56;100740.91;4994477;28;45775;-80
2022/06/05 11:18:19;;;;;;;;;15.25;14.50;;;;;20.48;67.79;100745.88;4994979;28;45696;-81
2022/06/05 11:20:56;;;;;;;;;17.75;17.25;;;;;20.47;67.30;100738.03;4994759;28;45516;-81
2022/06/05 11:23:26;;;;;;;;;17.00;15.75;;;;;20.41;67.46;100720.09;4994491;28;46052;-80
2022/06/05 11:32:22;;;;;;;;;14.75;14.00;;;;;20.65;67.13;100732.50;5056394;28;46147;-80
2022/06/05 11:34:56;;;;;;;;;19.00;15.50;;;;;20.69;66.74;100739.16;5056597;28;45523;-80
2022/06/05 11:38:14;;;;;;;;;14.75;14.00;;;;;20.72;66.75;100741.50;5056384;28;45613;-81
2022/06/05 11:44:29;;;;;;;;;17.25;16.25;;;;;20.80;66.44;100765.41;4878341;28;45592;-80
2022/06/05 11:47:10;;;;;;;;;14.50;13.75;;;;;20.75;66.09;100759.78;4878741;29;45735;-79
2022/06/05 11:50:01;;;;;;;;;16.25;15.25;;;;;20.71;66.25;100761.97;4894147;29;45652;-80
2022/06/05 11:53:14;;;;;;;;;17.50;17.00;;;;;20.69;66.74;100771.09;4878824;29;45615;-79
2022/06/05 11:55:57;;;;;;;;;18.00;17.25;;;;;20.73;66.34;100770.59;4878637;29;45693;-79
2022/06/05 12:01:53;;;;;;;;;17.00;15.00;;;;;20.88;66.04;100770.72;4878544;29;45625;-80
2022/06/05 12:04:49;;;;;;;;;13.00;13.00;;;;;20.95;65.78;100775.19;4862833;29;45548;-80
2022/06/05 12:07:17;;;;;;;;;11.25;9.75;;;;;20.89;65.27;100749.22;4878130;29;46662;-80
2022/06/05 12:09:50;;;;;;;;;15.00;14.25;;;;;20.98;65.53;100757.19;4893721;29;48015;-80
2022/06/05 12:12:24;;;;;;;;;16.75;15.25;;;;;21.13;65.35;100780.28;4878411;29;45775;-79
2022/06/05 12:15:06;;;;;;;;;16.50;15.50;;;;;21.21;64.69;100766.13;4878325;29;46024;-77
2022/06/05 12:17:39;;;;;;;;;14.50;12.50;;;;;21.23;64.36;100780.94;4943003;28;46718;-80
2022/06/05 12:20:30;;;;;;;;;17.75;14.75;;;;;21.28;64.98;100775.06;5025669;28;46320;-80
2022/06/05 12:22:55;;;;;;;;;13.50;13.25;;;;;21.33;64.54;100783.38;5055971;28;45655;-81
2022/06/05 12:25:51;;;;;;;;;15.00;12.50;;;;;21.38;63.99;100780.22;5055946;28;45835;-80
2022/06/05 12:28:39;;;;;;;;;13.25;12.25;;;;;21.39;63.96;100788.00;5055670;28;46404;-80
2022/06/05 12:31:17;;;;;;;;;11.75;11.75;;;;;21.39;63.66;100817.34;5055671;28;46101;-80
2022/06/05 12:34:00;;;;;;;;;9.00;7.75;;;;;21.37;64.00;100795.38;5055990;28;45756;-81
2022/06/05 12:36:39;;;;;;;;;14.25;14.00;;;;;21.26;63.45;100791.25;5055857;28;45801;-81
2022/06/05 12:39:23;;;;;;;;;13.00;12.50;;;;;21.36;63.40;100801.72;5055712;28;46730;-81
2022/06/05 12:45:23;;;;;;;;;14.50;13.50;;;;;21.39;63.12;100817.34;5054943;28;45568;-79
2022/06/05 12:48:00;;;;;;;;;10.75;9.50;;;;;21.34;62.91;100814.38;5055628;28;45742;-80
2022/06/05 12:50:50;;;;;;;;;11.75;11.00;;;;;21.31;63.49;100817.41;5055455;28;45565;-79
2022/06/05 12:53:27;;;;;;;;;9.00;8.00;;;;;21.32;63.22;100819.88;5055675;28;46135;-80
2022/06/05 12:56:31;;;;;;;;;12.00;11.75;;;;;21.28;62.50;100823.06;5055406;28;45504;-78
2022/06/05 13:02:34;;;;;;;;;11.00;11.00;;;;;21.28;62.88;100821.22;5055172;28;45679;-80
2022/06/05 13:05:12;;;;;;;;;13.50;12.00;;;;;21.33;62.59;100832.19;5055364;28;45926;-79
2022/06/05 13:07:48;;;;;;;;;11.50;11.25;;;;;21.35;62.32;100827.53;5055256;28;45674;-81
2022/06/05 13:10:44;;;;;;;;;12.00;10.00;;;;;21.44;62.48;100844.31;5055048;28;45659;-81
2022/06/05 13:13:28;;;;;;;;;10.00;10.00;;;;;21.49;61.99;100841.94;5053899;28;46509;-79
2022/06/05 13:15:58;;;;;;;;;10.25;10.00;;;;;21.48;61.71;100842.16;5055089;28;45652;-81
2022/06/05 13:18:34;;;;;;;;;12.00;11.00;;;;;21.60;61.97;100832.72;5054935;28;45528;-79
2022/06/05 13:21:14;;;;;;;;;8.50;8.50;;;;;21.75;61.82;100839.81;5055121;28;45880;-80
2022/06/05 13:23:44;;;;;;;;;9.50;9.00;;;;;21.81;61.60;100851.63;5036181;28;48488;-78
2022/06/05 13:26:27;;;;;;;;;8.00;8.00;;;;;21.93;61.21;100838.69;5054781;28;45555;-79